createdAt,value
2022-10-05T00:01:52.906Z,101164.84
2022-10-05T00:04:22.385Z,101160.34
2022-10-05T00:07:03.018Z,101160.00
2022-10-05T00:09:30.368Z,101149.94
2022-10-05T00:11:57.551Z,101149.37
2022-10-05T00:14:30.493Z,101155.78
2022-10-05T00:16:57.861Z,101161.97
2022-10-05T00:19:34.674Z,101152.84
2022-10-05T00:22:11.199Z,101152.94
2022-10-05T00:24:38.081Z,101143.50
2022-10-05T00:27:19.151Z,101160.66
2022-10-05T00:29:47.136Z,101163.53
2022-10-05T00:32:14.321Z,101156.06
2022-10-05T00:34:41.973Z,101152.88
2022-10-05T00:37:09.384Z,101153.09
2022-10-05T00:39:38.603Z,101154.38
2022-10-05T00:42:24.174Z,101160.16
2022-10-05T00:45:13.923Z,101155.56
2022-10-05T00:47:54.596Z,101144.63
2022-10-05T00:50:24.747Z,101152.81
2022-10-05T00:53:12.720Z,101161.78
2022-10-05T00:55:49.371Z,101162.78
2022-10-05T00:58:54.051Z,101160.00
2022-10-05T01:01:47.983Z,101159.59
2022-10-05T01:04:26.237Z,101151.34
2022-10-05T01:06:59.855Z,101155.37
2022-10-05T01:09:37.262Z,101154.53
2022-10-05T01:12:20.386Z,101152.84
2022-10-05T01:15:05.912Z,101154.31
2022-10-05T01:17:36.057Z,101160.91
2022-10-05T01:20:21.291Z,101173.84
2022-10-05T01:23:12.642Z,101176.88
2022-10-05T01:26:17.172Z,101172.94
2022-10-05T01:28:49.626Z,101176.31
2022-10-05T01:31:25.511Z,101180.44
2022-10-05T01:34:01.964Z,101186.81
2022-10-05T01:36:40.302Z,101183.97
2022-10-05T01:39:29.159Z,101184.03
2022-10-05T01:41:58.749Z,101193.94
2022-10-05T01:44:31.226Z,101192.38
2022-10-05T01:47:08.016Z,101198.59
2022-10-05T01:50:00.633Z,101188.19
2022-10-05T01:53:08.328Z,101184.81
2022-10-05T01:55:47.006Z,101184.62
2022-10-05T01:58:36.048Z,101191.84
2022-10-05T02:01:15.745Z,101188.81
2022-10-05T02:03:50.210Z,101191.78
2022-10-05T02:06:26.299Z,101198.72
2022-10-05T02:09:26.651Z,101199.19
2022-10-05T02:12:07.066Z,101198.38
2022-10-05T02:14:40.983Z,101209.34
2022-10-05T02:17:16.597Z,101205.72
2022-10-05T02:19:50.511Z,101209.56
2022-10-05T02:22:39.896Z,101205.47
2022-10-05T02:25:11.358Z,101203.44
2022-10-05T02:27:43.900Z,101202.50
2022-10-05T02:30:16.226Z,101201.09
2022-10-05T02:32:51.709Z,101204.00
2022-10-05T02:35:20.672Z,101198.09
2022-10-05T02:38:01.407Z,101198.47
2022-10-05T02:40:41.447Z,101210.19
2022-10-05T02:43:42.171Z,101210.25
2022-10-05T02:46:19.624Z,101211.97
2022-10-05T02:48:52.966Z,101203.53
2022-10-05T02:51:45.690Z,101204.94
2022-10-05T02:54:20.677Z,101204.09
2022-10-05T02:56:59.688Z,101216.00
2022-10-05T02:59:31.284Z,101210.37
2022-10-05T03:02:07.958Z,101209.63
2022-10-05T03:04:54.138Z,101210.53
2022-10-05T03:07:30.673Z,101202.09
2022-10-05T03:10:06.715Z,101208.91
2022-10-05T03:12:45.454Z,101196.63
2022-10-05T03:15:36.137Z,101193.78
2022-10-05T03:18:28.565Z,101203.44
2022-10-05T03:21:36.009Z,101196.72
2022-10-05T03:24:40.394Z,101192.31
2022-10-05T03:27:18.658Z,101193.72
2022-10-05T03:29:54.220Z,101185.94
2022-10-05T03:32:50.008Z,101179.69
2022-10-05T03:35:51.193Z,101182.25
2022-10-05T03:39:04.232Z,101193.37
2022-10-05T03:41:41.852Z,101186.66
2022-10-05T03:44:24.618Z,101205.41
2022-10-05T03:47:05.639Z,101201.59
2022-10-05T03:49:46.164Z,101197.56
2022-10-05T03:52:18.970Z,101197.22
2022-10-05T03:54:50.027Z,101200.94
2022-10-05T03:57:22.149Z,101207.47
2022-10-05T04:00:00.763Z,101214.41
2022-10-05T04:02:31.422Z,101209.66
2022-10-05T04:05:03.930Z,101210.59
2022-10-05T04:07:38.114Z,101210.44
2022-10-05T04:10:12.414Z,101203.13
2022-10-05T04:12:43.782Z,101205.03
2022-10-05T04:15:26.256Z,101208.16
2022-10-05T04:18:01.068Z,101210.56
2022-10-05T04:21:04.316Z,101216.56
2022-10-05T04:23:57.676Z,101213.94
2022-10-05T04:26:50.673Z,101216.97
2022-10-05T04:29:38.582Z,101225.06
2022-10-05T04:32:23.910Z,101219.75
2022-10-05T04:35:03.336Z,101228.31
2022-10-05T04:37:52.194Z,101226.19
2022-10-05T04:40:28.006Z,101219.75
2022-10-05T04:43:21.630Z,101220.88
2022-10-05T04:45:56.245Z,101224.69
2022-10-05T04:48:41.938Z,101221.06
2022-10-05T04:51:18.823Z,101225.62
2022-10-05T04:54:05.970Z,101221.94
2022-10-05T04:56:36.847Z,101229.50
2022-10-05T04:59:35.482Z,101235.53
2022-10-05T05:02:44.118Z,101234.91
2022-10-05T05:05:29.603Z,101229.16
2022-10-05T05:08:06.890Z,101236.66
2022-10-05T05:10:46.127Z,101236.50
2022-10-05T05:13:33.868Z,101226.31
2022-10-05T05:16:16.282Z,101233.41
2022-10-05T05:19:02.238Z,101224.63
2022-10-05T05:21:58.927Z,101231.34
2022-10-05T05:24:38.445Z,101230.41
2022-10-05T05:27:40.318Z,101222.94
2022-10-05T05:30:33.838Z,101239.31
2022-10-05T05:33:08.134Z,101227.47
2022-10-05T05:36:06.159Z,101233.81
2022-10-05T05:38:39.946Z,101227.59
2022-10-05T05:41:10.710Z,101223.34
2022-10-05T05:43:52.037Z,101241.19
2022-10-05T05:46:44.733Z,101246.13
2022-10-05T05:49:24.189Z,101250.75
2022-10-05T05:52:06.122Z,101256.94
2022-10-05T05:54:46.702Z,101259.44
2022-10-05T05:57:23.538Z,101266.69
2022-10-05T06:00:00.773Z,101271.22
2022-10-05T06:02:35.291Z,101268.59
2022-10-05T06:05:30.639Z,101277.37
2022-10-05T06:08:01.930Z,101279.75
2022-10-05T06:10:38.530Z,101286.06
2022-10-05T06:13:11.647Z,101303.63
2022-10-05T06:15:42.661Z,101287.44
2022-10-05T06:18:12.266Z,101302.97
2022-10-05T06:21:00.132Z,101313.78
2022-10-05T06:23:38.524Z,101330.91
2022-10-05T06:26:15.406Z,101340.09
2022-10-05T06:28:43.011Z,101341.87
2022-10-05T06:31:29.604Z,101347.62
2022-10-05T06:34:34.218Z,101356.44
2022-10-05T06:37:07.241Z,101355.66
2022-10-05T06:40:05.784Z,101356.22
2022-10-05T06:43:03.050Z,101362.50
2022-10-05T06:45:53.224Z,101358.72
2022-10-05T06:48:35.887Z,101377.28
2022-10-05T06:51:27.174Z,101381.56
2022-10-05T06:53:57.795Z,101379.81
2022-10-05T06:56:41.122Z,101371.69
2022-10-05T06:59:38.888Z,101372.59
2022-10-05T07:02:12.445Z,101382.81
2022-10-05T07:04:52.495Z,101385.97
2022-10-05T07:07:31.611Z,101386.22
2022-10-05T07:10:33.846Z,101382.13
2022-10-05T07:13:19.554Z,101387.94
2022-10-05T07:15:54.971Z,101395.69
2022-10-05T07:18:44.200Z,101404.44
2022-10-05T07:21:32.880Z,101396.72
2022-10-05T07:24:29.336Z,101394.66
2022-10-05T07:27:21.989Z,101398.03
2022-10-05T07:29:59.401Z,101391.75
2022-10-05T07:32:47.302Z,101376.06
2022-10-05T07:35:44.017Z,101379.44
2022-10-05T07:38:31.009Z,101381.72
2022-10-05T07:41:48.280Z,101398.03
2022-10-05T07:44:25.924Z,101392.59
2022-10-05T07:47:00.796Z,101400.00
2022-10-05T07:49:44.538Z,101392.06
2022-10-05T07:52:32.389Z,101388.44
2022-10-05T07:55:20.595Z,101390.16
2022-10-05T07:58:09.323Z,101392.69
2022-10-05T08:00:54.802Z,101389.94
2022-10-05T08:03:47.962Z,101386.81
2022-10-05T08:06:26.120Z,101384.31
2022-10-05T08:08:57.755Z,101397.81
2022-10-05T08:11:31.438Z,101402.78
2022-10-05T08:14:24.579Z,101406.19
2022-10-05T08:16:52.958Z,101403.91
2022-10-05T08:19:26.274Z,101399.13
2022-10-05T08:21:58.726Z,101403.75
2022-10-05T08:24:41.246Z,101400.53
2022-10-05T08:27:11.041Z,101397.53
2022-10-05T08:29:42.006Z,101401.41
2022-10-05T08:32:18.887Z,101397.03
2022-10-05T08:34:51.249Z,101387.44
2022-10-05T08:37:24.282Z,101384.75
2022-10-05T08:42:56.994Z,101369.13
2022-10-05T08:45:46.628Z,101368.31
2022-10-05T08:48:22.986Z,101358.03
2022-10-05T08:51:15.598Z,101366.38
2022-10-05T08:54:17.891Z,101364.25
2022-10-05T08:57:00.510Z,101352.84
2022-10-05T08:59:46.229Z,101350.47
2022-10-05T09:02:39.199Z,101358.16
2022-10-05T09:05:20.963Z,101352.16
2022-10-05T09:08:03.750Z,101347.66
2022-10-05T09:11:00.026Z,101355.22
2022-10-05T09:14:06.747Z,101358.50
2022-10-05T09:17:10.916Z,101361.88
2022-10-05T09:20:02.883Z,101374.81
2022-10-05T09:23:05.926Z,101377.38
2022-10-05T09:25:58.866Z,101373.16
2022-10-05T09:28:35.243Z,101379.69
2022-10-05T09:31:38.861Z,101389.66
2022-10-05T09:34:25.960Z,101383.47
2022-10-05T09:37:11.573Z,101392.63
2022-10-05T09:40:09.739Z,101379.09
2022-10-05T09:42:58.825Z,101381.41
2022-10-05T09:45:56.851Z,101385.22
2022-10-05T09:49:01.627Z,101378.16
2022-10-05T09:51:54.907Z,101387.62
2022-10-05T09:55:01.263Z,101388.88
2022-10-05T09:57:55.554Z,101380.28
2022-10-05T10:00:32.627Z,101376.22
2022-10-05T10:03:18.569Z,101368.81
2022-10-05T10:05:57.022Z,101361.34
2022-10-05T10:08:42.922Z,101369.19
2022-10-05T10:11:32.466Z,101373.56
2022-10-05T10:14:17.530Z,101370.78
2022-10-05T10:17:00.754Z,101362.78
2022-10-05T10:19:55.564Z,101362.41
2022-10-05T10:22:32.250Z,101365.78
2022-10-05T10:25:45.866Z,101360.31
2022-10-05T10:28:34.572Z,101366.19
2022-10-05T10:31:16.689Z,101357.75
2022-10-05T10:34:23.119Z,101368.00
2022-10-05T10:37:10.904Z,101352.47
2022-10-05T10:40:08.817Z,101354.59
2022-10-05T10:43:04.226Z,101363.38
2022-10-05T10:45:50.687Z,101368.41
2022-10-05T10:48:49.175Z,101363.84
2022-10-05T10:51:45.166Z,101361.53
2022-10-05T10:54:23.806Z,101358.97
2022-10-05T10:57:00.525Z,101372.37
2022-10-05T10:59:55.461Z,101363.63
2022-10-05T11:02:56.468Z,101361.06
2022-10-05T11:05:47.919Z,101355.78
2022-10-05T11:08:18.790Z,101356.41
2022-10-05T11:11:11.657Z,101359.78
2022-10-05T11:14:15.611Z,101350.44
2022-10-05T11:16:51.870Z,101341.38
2022-10-05T11:19:46.545Z,101342.69
2022-10-05T11:22:47.243Z,101348.47
2022-10-05T11:25:27.708Z,101335.37
2022-10-05T11:28:15.512Z,101334.16
2022-10-05T11:31:00.729Z,101338.41
2022-10-05T11:33:58.629Z,101333.22
2022-10-05T11:36:40.763Z,101331.94
2022-10-05T11:39:38.140Z,101338.97
2022-10-05T11:42:23.372Z,101327.78
2022-10-05T11:45:08.618Z,101322.88
2022-10-05T11:47:46.603Z,101313.94
2022-10-05T11:50:27.563Z,101309.50
2022-10-05T11:52:59.864Z,101307.03
2022-10-05T11:55:57.660Z,101307.91
2022-10-05T11:58:32.496Z,101302.03
2022-10-05T12:01:34.655Z,101304.25
2022-10-05T12:04:43.106Z,101301.19
2022-10-05T12:07:49.083Z,101301.47
2022-10-05T12:10:48.839Z,101295.38
2022-10-05T12:13:30.886Z,101295.44
2022-10-05T12:16:10.381Z,101290.87
2022-10-05T12:18:54.085Z,101284.00
2022-10-05T12:21:44.779Z,101286.53
2022-10-05T12:24:36.907Z,101286.81
2022-10-05T12:27:15.899Z,101285.78
2022-10-05T12:30:11.877Z,101283.22
2022-10-05T12:33:02.457Z,101290.75
2022-10-05T12:35:53.554Z,101277.78
2022-10-05T12:38:42.220Z,101286.44
2022-10-05T12:41:22.544Z,101285.00
2022-10-05T12:44:12.273Z,101288.75
2022-10-05T12:46:51.383Z,101282.88
2022-10-05T12:49:29.740Z,101280.25
2022-10-05T12:51:58.758Z,101273.38
2022-10-05T12:54:41.342Z,101272.69
2022-10-05T12:57:26.923Z,101268.25
2022-10-05T12:59:58.762Z,101270.72
2022-10-05T13:02:45.571Z,101265.28
2022-10-05T13:05:26.296Z,101268.97
2022-10-05T13:07:58.150Z,101267.66
2022-10-05T13:10:34.122Z,101252.69
2022-10-05T13:13:21.403Z,101258.66
2022-10-05T13:16:01.819Z,101252.19
2022-10-05T13:19:07.669Z,101245.78
2022-10-05T13:21:49.938Z,101253.47
2022-10-05T13:24:22.233Z,101261.50
2022-10-05T13:26:55.017Z,101255.28
2022-10-05T13:29:54.339Z,101247.72
2022-10-05T13:32:34.555Z,101251.88
2022-10-05T13:35:22.914Z,101242.78
2022-10-05T13:38:01.729Z,101246.09
2022-10-05T13:40:35.957Z,101240.81
2022-10-05T13:43:07.755Z,101236.81
2022-10-05T13:45:43.457Z,101234.38
2022-10-05T13:48:19.908Z,101237.50
2022-10-05T13:51:02.084Z,101244.69
2022-10-05T13:53:41.365Z,101235.22
2022-10-05T13:56:26.162Z,101231.97
2022-10-05T13:59:17.399Z,101233.31
2022-10-05T14:01:51.112Z,101237.06
2022-10-05T14:04:22.015Z,101229.87
2022-10-05T14:06:49.869Z,101237.31
2022-10-05T14:09:19.483Z,101238.88
2022-10-05T14:11:51.926Z,101240.41
2022-10-05T14:14:25.621Z,101232.84
2022-10-05T14:17:05.819Z,101225.69
2022-10-05T14:19:41.332Z,101227.31
2022-10-05T14:22:15.909Z,101229.87
2022-10-05T14:25:01.972Z,101231.69
2022-10-05T14:27:30.111Z,101237.47
2022-10-05T14:30:01.529Z,101238.03
2022-10-05T14:32:34.441Z,101237.09
2022-10-05T14:35:10.681Z,101239.28
2022-10-05T14:37:50.405Z,101235.38
2022-10-05T14:40:26.805Z,101237.37
2022-10-05T14:42:53.866Z,101235.19
2022-10-05T14:45:24.978Z,101228.44
2022-10-05T14:48:11.328Z,101237.25
2022-10-05T14:50:59.266Z,101231.06
2022-10-05T14:53:38.882Z,101233.13
2022-10-05T14:56:24.701Z,101229.09
2022-10-05T14:59:06.543Z,101230.78
2022-10-05T15:01:36.616Z,101235.81
2022-10-05T15:04:30.401Z,101232.78
2022-10-05T15:07:38.911Z,101231.34
2022-10-05T15:10:26.887Z,101234.47
2022-10-05T15:12:55.194Z,101236.06
2022-10-05T15:15:35.376Z,101236.81
2022-10-05T15:18:06.946Z,101238.25
2022-10-05T15:20:45.614Z,101228.16
2022-10-05T15:23:31.578Z,101227.66
2022-10-05T15:26:01.587Z,101221.41
2022-10-05T15:28:42.454Z,101211.75
2022-10-05T15:31:50.794Z,101207.38
2022-10-05T15:34:22.438Z,101195.22
2022-10-05T15:36:59.885Z,101197.09
2022-10-05T15:39:52.642Z,101196.69
2022-10-05T15:42:33.203Z,101200.78
2022-10-05T15:45:13.099Z,101207.63
2022-10-05T15:47:46.667Z,101213.56
2022-10-05T15:50:22.550Z,101211.72
2022-10-05T15:53:15.287Z,101203.53
2022-10-05T15:56:05.941Z,101197.00
2022-10-05T15:58:54.469Z,101192.78
2022-10-05T16:01:33.810Z,101200.38
2022-10-05T16:04:14.241Z,101203.19
2022-10-05T16:07:05.897Z,101196.69
2022-10-05T16:09:43.515Z,101199.41
2022-10-05T16:12:29.154Z,101206.25
2022-10-05T16:15:06.527Z,101195.59
2022-10-05T16:17:57.752Z,101194.44
2022-10-05T16:21:00.341Z,101204.25
2022-10-05T16:23:41.857Z,101195.38
2022-10-05T16:26:24.435Z,101201.94
2022-10-05T16:29:13.268Z,101210.28
2022-10-05T16:31:54.364Z,101209.41
2022-10-05T16:34:41.143Z,101217.22
2022-10-05T16:37:11.270Z,101223.44
2022-10-05T16:39:56.826Z,101227.63
2022-10-05T16:42:26.622Z,101228.31
2022-10-05T16:45:00.054Z,101236.63
2022-10-05T16:48:17.726Z,101240.16
2022-10-05T16:51:08.231Z,101227.91
2022-10-05T16:53:54.627Z,101231.62
2022-10-05T16:56:25.263Z,101234.09
2022-10-05T16:59:07.073Z,101235.94
2022-10-05T17:01:44.672Z,101231.28
2022-10-05T17:04:23.744Z,101234.03
2022-10-05T17:07:20.001Z,101236.47
2022-10-05T17:10:05.808Z,101234.44
2022-10-05T17:12:39.993Z,101238.94
2022-10-05T17:15:19.671Z,101246.78
2022-10-05T17:17:58.480Z,101242.22
2022-10-05T17:20:42.785Z,101252.97
2022-10-05T17:23:37.861Z,101250.41
2022-10-05T17:26:23.442Z,101254.03
2022-10-05T17:29:24.942Z,101252.44
2022-10-05T17:32:11.751Z,101264.50
2022-10-05T17:35:04.739Z,101257.09
2022-10-05T17:37:39.011Z,101253.00
2022-10-05T17:40:34.605Z,101258.56
2022-10-05T17:43:16.956Z,101263.47
2022-10-05T17:45:43.698Z,101272.16
2022-10-05T17:48:12.574Z,101273.09
2022-10-05T17:51:07.754Z,101268.97
2022-10-05T17:54:05.130Z,101264.88
2022-10-05T17:56:55.447Z,101270.13
2022-10-05T17:59:36.791Z,101267.59
2022-10-05T18:02:36.893Z,101272.72
2022-10-05T18:05:04.535Z,101272.00
2022-10-05T18:07:35.867Z,101266.56
2022-10-05T18:10:15.416Z,101267.44
2022-10-05T18:13:11.912Z,101273.56
2022-10-05T18:15:44.910Z,101267.66
2022-10-05T18:18:43.241Z,101269.62
2022-10-05T18:21:18.270Z,101262.84
2022-10-05T18:24:18.263Z,101265.16
2022-10-05T18:27:00.381Z,101262.22
2022-10-05T18:30:08.752Z,101266.22
2022-10-05T18:32:58.972Z,101266.34
2022-10-05T18:35:38.061Z,101264.78
2022-10-05T18:38:28.217Z,101262.25
2022-10-05T18:41:13.863Z,101267.91
2022-10-05T18:44:06.356Z,101268.88
2022-10-05T18:47:09.132Z,101272.84
2022-10-05T18:50:01.076Z,101266.47
2022-10-05T18:52:49.487Z,101259.47
2022-10-05T18:55:54.136Z,101268.03
2022-10-05T18:58:30.631Z,101261.63
2022-10-05T19:01:16.993Z,101258.97
2022-10-05T19:03:50.052Z,101257.16
2022-10-05T19:06:31.021Z,101260.06
2022-10-05T19:09:27.221Z,101260.19
2022-10-05T19:12:15.983Z,101252.72
2022-10-05T19:15:07.182Z,101261.59
2022-10-05T19:18:11.275Z,101267.84
2022-10-05T19:20:54.062Z,101268.19
2022-10-05T19:23:39.958Z,101272.13
2022-10-05T19:26:34.517Z,101274.28
2022-10-05T19:29:27.117Z,101270.16
2022-10-05T19:32:42.320Z,101267.25
2022-10-05T19:35:24.263Z,101275.16
2022-10-05T19:41:12.704Z,101279.50
2022-10-05T19:43:39.627Z,101277.22
2022-10-05T19:46:30.670Z,101281.44
2022-10-05T19:48:57.904Z,101281.69
2022-10-05T19:51:28.735Z,101283.25
2022-10-05T19:54:02.100Z,101277.28
2022-10-05T19:56:33.666Z,101275.53
2022-10-05T19:59:17.485Z,101282.75
2022-10-05T20:01:49.738Z,101279.81
2022-10-05T20:04:43.531Z,101292.66
2022-10-05T20:07:21.464Z,101292.09
2022-10-05T20:09:58.082Z,101284.47
2022-10-05T20:12:47.174Z,101293.38
2022-10-05T20:15:37.945Z,101291.16
2022-10-05T20:19:01.157Z,101289.78
2022-10-05T20:21:41.602Z,101293.69
2022-10-05T20:24:09.052Z,101308.13
2022-10-05T20:27:05.552Z,101311.37
2022-10-05T20:29:51.256Z,101310.84
2022-10-05T20:32:36.754Z,101307.59
2022-10-05T20:35:22.947Z,101309.91
2022-10-05T20:38:08.243Z,101305.66
2022-10-05T20:40:53.645Z,101318.16
2022-10-05T20:43:39.446Z,101326.22
2022-10-05T20:46:24.913Z,101302.94
2022-10-05T20:48:53.898Z,101315.81
2022-10-05T20:51:20.963Z,101318.16
2022-10-05T20:53:47.792Z,101311.16
2022-10-05T20:56:14.904Z,101308.63
2022-10-05T20:58:41.751Z,101304.16
2022-10-05T21:01:23.390Z,101302.91
2022-10-05T21:03:50.660Z,101310.09
2022-10-05T21:06:26.260Z,101306.94
2022-10-05T21:08:54.238Z,101307.87
2022-10-05T21:11:21.423Z,101304.28
2022-10-05T21:13:49.353Z,101310.00
2022-10-05T21:16:18.528Z,101316.56
2022-10-05T21:18:47.087Z,101319.22
2022-10-05T21:21:17.368Z,101318.78
2022-10-05T21:23:45.414Z,101310.12
2022-10-05T21:26:12.580Z,101311.37
2022-10-05T21:28:39.754Z,101314.69
2022-10-05T21:31:07.826Z,101315.09
2022-10-05T21:33:36.835Z,101305.53
2022-10-05T21:36:03.790Z,101312.00
2022-10-05T21:38:31.083Z,101303.53
2022-10-05T21:40:58.103Z,101315.34
2022-10-05T21:43:25.333Z,101307.47
2022-10-05T21:45:54.192Z,101307.84
2022-10-05T21:48:21.406Z,101307.22
2022-10-05T21:50:48.363Z,101305.53
2022-10-05T21:53:17.187Z,101309.78
2022-10-05T21:55:45.378Z,101301.84
2022-10-05T21:58:12.481Z,101296.78
2022-10-05T22:00:41.147Z,101309.31
2022-10-05T22:03:08.813Z,101310.56
2022-10-05T22:05:36.523Z,101306.75
2022-10-05T22:08:04.548Z,101297.41
2022-10-05T22:10:32.883Z,101302.16
2022-10-05T22:13:01.560Z,101305.16
2022-10-05T22:15:31.441Z,101295.63
2022-10-05T22:17:59.672Z,101306.38
2022-10-05T22:20:26.895Z,101305.94
2022-10-05T22:22:54.014Z,101297.78
2022-10-05T22:25:21.663Z,101302.16
2022-10-05T22:27:49.374Z,101305.94
2022-10-05T22:30:16.477Z,101295.53
2022-10-05T22:32:44.454Z,101296.72
2022-10-05T22:35:11.932Z,101291.44
2022-10-05T22:37:38.940Z,101296.03
2022-10-05T22:40:07.656Z,101300.56
2022-10-05T22:42:34.704Z,101290.41
2022-10-05T22:45:01.563Z,101292.19
2022-10-05T22:47:28.687Z,101293.16
2022-10-05T22:49:55.531Z,101290.50
2022-10-05T22:52:22.390Z,101293.34
2022-10-05T22:54:49.494Z,101288.25
2022-10-05T22:57:16.359Z,101286.16
2022-10-05T22:59:43.462Z,101294.19
2022-10-05T23:02:10.863Z,101275.13
2022-10-05T23:04:37.768Z,101285.69
2022-10-05T23:07:05.182Z,101289.94
2022-10-05T23:09:32.414Z,101279.69
2022-10-05T23:11:59.258Z,101278.09
2022-10-05T23:14:26.168Z,101280.06
2022-10-05T23:16:53.366Z,101268.75
2022-10-05T23:19:20.722Z,101270.44
2022-10-05T23:21:47.566Z,101271.09
2022-10-05T23:24:14.846Z,101273.00
2022-10-05T23:26:41.688Z,101269.72
2022-10-05T23:29:09.543Z,101258.38
2022-10-05T23:31:36.937Z,101262.81
2022-10-05T23:34:03.837Z,101259.22
2022-10-05T23:36:33.496Z,101261.88
2022-10-05T23:39:00.612Z,101266.03
2022-10-05T23:41:27.496Z,101262.44
2022-10-05T23:43:57.216Z,101265.81
2022-10-05T23:46:24.491Z,101257.16
2022-10-05T23:48:51.434Z,101260.16
2022-10-05T23:51:18.643Z,101255.09
2022-10-05T23:53:45.755Z,101256.12
2022-10-05T23:56:12.969Z,101261.69
2022-10-05T23:58:40.847Z,101262.44
